sensor_id;sensor_type;location;lat;lon;timestamp;temperature;humidity
70593;DHT22;58294;42.988;20.338;2023-02-15T00:01:51;128.90;1715.20
70593;DHT22;58294;42.988;20.338;2023-02-15T00:04:19;128.90;1715.20
70593;DHT22;58294;42.988;20.338;2023-02-15T00:06:45;128.80;1715.20
70593;DHT22;58294;42.988;20.338;2023-02-15T00:09:11;128.80;1715.20
70593;DHT22;58294;42.988;20.338;2023-02-15T00:11:38;128.80;1715.20
70593;DHT22;58294;42.988;20.338;2023-02-15T00:14:20;128.80;1715.20
70593;DHT22;58294;42.988;20.338;2023-02-15T00:16:47;128.80;1715.20
70593;DHT22;58294;42.988;20.338;2023-02-15T00:19:15;128.80;1715.20
70593;DHT22;58294;42.988;20.338;2023-02-15T00:21:42;128.80;1715.20
70593;DHT22;58294;42.988;20.338;2023-02-15T00:24:10;128.80;1715.20
70593;DHT22;58294;42.988;20.338;2023-02-15T00:26:38;128.90;1715.20
70593;DHT22;58294;42.988;20.338;2023-02-15T00:29:04;128.90;1715.20
70593;DHT22;58294;42.988;20.338;2023-02-15T00:31:31;153.60;1715.20
70593;DHT22;58294;42.988;20.338;2023-02-15T00:34:18;153.60;1715.20
70593;DHT22;58294;42.988;20.338;2023-02-15T00:36:45;153.60;1715.20
70593;DHT22;58294;42.988;20.338;2023-02-15T00:39:11;153.60;1715.20
70593;DHT22;58294;42.988;20.338;2023-02-15T00:41:37;128.90;1715.20
70593;DHT22;58294;42.988;20.338;2023-02-15T00:44:03;153.60;1715.20
70593;DHT22;58294;42.988;20.338;2023-02-15T00:46:29;128.90;1689.60
70593;DHT22;58294;42.988;20.338;2023-02-15T00:48:55;128.90;1715.20
70593;DHT22;58294;42.988;20.338;2023-02-15T00:51:21;128.80;1689.60
70593;DHT22;58294;42.988;20.338;2023-02-15T00:53:47;128.80;1715.20
70593;DHT22;58294;42.988;20.338;2023-02-15T00:56:13;128.80;1715.20
70593;DHT22;58294;42.988;20.338;2023-02-15T00:58:39;128.70;1715.20
70593;DHT22;58294;42.988;20.338;2023-02-15T01:01:09;128.80;1715.20
70593;DHT22;58294;42.988;20.338;2023-02-15T01:03:35;128.80;1715.20
70593;DHT22;58294;42.988;20.338;2023-02-15T01:06:02;128.70;1715.20
70593;DHT22;58294;42.988;20.338;2023-02-15T01:08:28;128.70;1715.20
70593;DHT22;58294;42.988;20.338;2023-02-15T01:10:54;128.60;1715.20
70593;DHT22;58294;42.988;20.338;2023-02-15T01:13:20;128.50;1715.20
70593;DHT22;58294;42.988;20.338;2023-02-15T01:15:51;128.50;1715.20
70593;DHT22;58294;42.988;20.338;2023-02-15T01:18:18;128.50;1740.80
70593;DHT22;58294;42.988;20.338;2023-02-15T01:20:43;128.50;1740.80
70593;DHT22;58294;42.988;20.338;2023-02-15T01:23:09;128.40;1740.80
70593;DHT22;58294;42.988;20.338;2023-02-15T01:25:35;128.40;1740.80
70593;DHT22;58294;42.988;20.338;2023-02-15T01:28:02;128.50;1740.80
70593;DHT22;58294;42.988;20.338;2023-02-15T01:30:28;128.50;1740.80
70593;DHT22;58294;42.988;20.338;2023-02-15T01:32:54;128.50;1740.80
70593;DHT22;58294;42.988;20.338;2023-02-15T01:35:20;128.50;1740.80
70593;DHT22;58294;42.988;20.338;2023-02-15T01:37:45;128.50;1740.80
70593;DHT22;58294;42.988;20.338;2023-02-15T01:40:15;128.50;1740.80
70593;DHT22;58294;42.988;20.338;2023-02-15T01:42:41;128.50;1740.80
70593;DHT22;58294;42.988;20.338;2023-02-15T01:45:26;128.50;1740.80
70593;DHT22;58294;42.988;20.338;2023-02-15T01:47:58;128.50;1740.80
70593;DHT22;58294;42.988;20.338;2023-02-15T01:50:37;128.40;1740.80
70593;DHT22;58294;42.988;20.338;2023-02-15T01:53:16;128.40;1740.80
70593;DHT22;58294;42.988;20.338;2023-02-15T01:55:55;128.30;1740.80
70593;DHT22;58294;42.988;20.338;2023-02-15T01:58:25;128.30;1740.80
70593;DHT22;58294;42.988;20.338;2023-02-15T02:00:51;128.30;1766.40
70593;DHT22;58294;42.988;20.338;2023-02-15T02:03:23;128.40;1766.40
70593;DHT22;58294;42.988;20.338;2023-02-15T02:05:51;128.50;1766.40
70593;DHT22;58294;42.988;20.338;2023-02-15T02:08:17;128.50;1740.80
70593;DHT22;58294;42.988;20.338;2023-02-15T02:10:43;128.50;1740.80
70593;DHT22;58294;42.988;20.338;2023-02-15T02:13:09;128.50;1740.80
70593;DHT22;58294;42.988;20.338;2023-02-15T02:15:52;128.50;1740.80
70593;DHT22;58294;42.988;20.338;2023-02-15T02:18:35;128.50;1740.80
70593;DHT22;58294;42.988;20.338;2023-02-15T02:35:05;128.50;1740.80
70593;DHT22;58294;42.988;20.338;2023-02-15T02:40:40;128.50;1740.80
70593;DHT22;58294;42.988;20.338;2023-02-15T02:45:52;128.50;1740.80
70593;DHT22;58294;42.988;20.338;2023-02-15T02:48:25;128.50;1740.80
70593;DHT22;58294;42.988;20.338;2023-02-15T02:50:52;128.60;1740.80
70593;DHT22;58294;42.988;20.338;2023-02-15T02:53:17;128.60;1740.80
70593;DHT22;58294;42.988;20.338;2023-02-15T02:58:39;128.60;1740.80
70593;DHT22;58294;42.988;20.338;2023-02-15T03:01:32;128.50;1715.20
70593;DHT22;58294;42.988;20.338;2023-02-15T03:04:32;128.50;1715.20
70593;DHT22;58294;42.988;20.338;2023-02-15T03:07:03;128.50;1715.20
70593;DHT22;58294;42.988;20.338;2023-02-15T03:09:45;128.40;1740.80
70593;DHT22;58294;42.988;20.338;2023-02-15T03:12:26;128.40;1715.20
70593;DHT22;58294;42.988;20.338;2023-02-15T03:14:57;128.30;1715.20
70593;DHT22;58294;42.988;20.338;2023-02-15T03:17:29;128.30;1740.80
70593;DHT22;58294;42.988;20.338;2023-02-15T03:19:58;128.30;1740.80
70593;DHT22;58294;42.988;20.338;2023-02-15T03:22:35;128.30;1715.20
70593;DHT22;58294;42.988;20.338;2023-02-15T03:25:10;128.30;1740.80
70593;DHT22;58294;42.988;20.338;2023-02-15T03:27:49;128.30;1740.80
70593;DHT22;58294;42.988;20.338;2023-02-15T03:30:19;128.30;1740.80
70593;DHT22;58294;42.988;20.338;2023-02-15T03:32:46;128.30;1740.80
70593;DHT22;58294;42.988;20.338;2023-02-15T03:35:13;128.20;1715.20
70593;DHT22;58294;42.988;20.338;2023-02-15T03:37:48;128.20;1715.20
70593;DHT22;58294;42.988;20.338;2023-02-15T03:40:29;128.20;1740.80
70593;DHT22;58294;42.988;20.338;2023-02-15T03:45:47;103.30;1715.20
70593;DHT22;58294;42.988;20.338;2023-02-15T03:48:39;103.30;1740.80
70593;DHT22;58294;42.988;20.338;2023-02-15T03:51:09;103.20;1715.20
70593;DHT22;58294;42.988;20.338;2023-02-15T03:53:57;103.10;1715.20
70593;DHT22;58294;42.988;20.338;2023-02-15T03:56:24;103.10;1740.80
70593;DHT22;58294;42.988;20.338;2023-02-15T03:58:50;103.10;1740.80
70593;DHT22;58294;42.988;20.338;2023-02-15T04:01:40;103.00;1740.80
70593;DHT22;58294;42.988;20.338;2023-02-15T04:06:53;103.10;1766.40
70593;DHT22;58294;42.988;20.338;2023-02-15T04:09:19;103.10;1766.40
70593;DHT22;58294;42.988;20.338;2023-02-15T04:12:03;103.10;1740.80
70593;DHT22;58294;42.988;20.338;2023-02-15T04:14:29;103.10;1740.80
70593;DHT22;58294;42.988;20.338;2023-02-15T04:17:13;103.10;1740.80
70593;DHT22;58294;42.988;20.338;2023-02-15T04:19:39;103.10;1740.80
70593;DHT22;58294;42.988;20.338;2023-02-15T04:22:23;103.10;1766.40
70593;DHT22;58294;42.988;20.338;2023-02-15T04:25:07;103.10;1740.80
70593;DHT22;58294;42.988;20.338;2023-02-15T04:27:40;103.10;1740.80
70593;DHT22;58294;42.988;20.338;2023-02-15T04:30:08;103.10;1740.80
70593;DHT22;58294;42.988;20.338;2023-02-15T04:32:34;103.10;1766.40
70593;DHT22;58294;42.988;20.338;2023-02-15T04:35:00;103.10;1766.40
70593;DHT22;58294;42.988;20.338;2023-02-15T04:37:26;103.10;1766.40
70593;DHT22;58294;42.988;20.338;2023-02-15T04:39:51;103.10;1766.40
70593;DHT22;58294;42.988;20.338;2023-02-15T04:42:17;103.10;1740.80
70593;DHT22;58294;42.988;20.338;2023-02-15T04:44:43;103.10;1766.40
70593;DHT22;58294;42.988;20.338;2023-02-15T04:47:09;103.10;1766.40
70593;DHT22;58294;42.988;20.338;2023-02-15T04:49:35;103.20;1766.40
70593;DHT22;58294;42.988;20.338;2023-02-15T04:52:00;103.20;1766.40
70593;DHT22;58294;42.988;20.338;2023-02-15T04:54:26;103.20;1766.40
70593;DHT22;58294;42.988;20.338;2023-02-15T04:56:52;103.30;1766.40
70593;DHT22;58294;42.988;20.338;2023-02-15T04:59:17;103.20;1740.80
70593;DHT22;58294;42.988;20.338;2023-02-15T05:01:43;103.20;1740.80
70593;DHT22;58294;42.988;20.338;2023-02-15T05:04:09;103.30;1740.80
70593;DHT22;58294;42.988;20.338;2023-02-15T05:06:35;103.30;1740.80
70593;DHT22;58294;42.988;20.338;2023-02-15T05:09:01;103.30;1740.80
70593;DHT22;58294;42.988;20.338;2023-02-15T05:11:27;128.00;1792.00
70593;DHT22;58294;42.988;20.338;2023-02-15T05:13:53;128.00;1792.00
70593;DHT22;58294;42.988;20.338;2023-02-15T05:16:18;128.10;1766.40
70593;DHT22;58294;42.988;20.338;2023-02-15T05:18:44;128.10;1766.40
70593;DHT22;58294;42.988;20.338;2023-02-15T05:21:10;128.10;1740.80
70593;DHT22;58294;42.988;20.338;2023-02-15T05:23:36;128.00;1740.80
70593;DHT22;58294;42.988;20.338;2023-02-15T05:26:02;128.00;1740.80
70593;DHT22;58294;42.988;20.338;2023-02-15T05:28:46;103.30;1715.20
70593;DHT22;58294;42.988;20.338;2023-02-15T05:31:19;103.30;1740.80
70593;DHT22;58294;42.988;20.338;2023-02-15T05:33:45;103.30;1715.20
70593;DHT22;58294;42.988;20.338;2023-02-15T05:36:11;103.30;1715.20
70593;DHT22;58294;42.988;20.338;2023-02-15T05:38:38;103.30;1740.80
70593;DHT22;58294;42.988;20.338;2023-02-15T05:41:04;103.30;1740.80
70593;DHT22;58294;42.988;20.338;2023-02-15T05:43:31;103.30;1740.80
70593;DHT22;58294;42.988;20.338;2023-02-15T05:45:57;103.30;1740.80
70593;DHT22;58294;42.988;20.338;2023-02-15T05:48:25;103.30;1715.20
70593;DHT22;58294;42.988;20.338;2023-02-15T05:53:32;103.30;1740.80
70593;DHT22;58294;42.988;20.338;2023-02-15T05:55:58;103.30;1740.80
70593;DHT22;58294;42.988;20.338;2023-02-15T05:58:28;103.30;1740.80
70593;DHT22;58294;42.988;20.338;2023-02-15T06:00:54;103.30;1740.80
70593;DHT22;58294;42.988;20.338;2023-02-15T06:03:20;103.30;1740.80
70593;DHT22;58294;42.988;20.338;2023-02-15T06:05:46;103.30;1740.80
70593;DHT22;58294;42.988;20.338;2023-02-15T06:08:12;103.30;1740.80
70593;DHT22;58294;42.988;20.338;2023-02-15T06:10:37;103.30;1715.20
70593;DHT22;58294;42.988;20.338;2023-02-15T06:13:06;103.30;1715.20
70593;DHT22;58294;42.988;20.338;2023-02-15T06:15:32;103.30;1740.80
70593;DHT22;58294;42.988;20.338;2023-02-15T06:17:58;103.30;1740.80
70593;DHT22;58294;42.988;20.338;2023-02-15T06:20:24;103.30;1740.80
70593;DHT22;58294;42.988;20.338;2023-02-15T06:22:49;128.00;1766.40
70593;DHT22;58294;42.988;20.338;2023-02-15T06:25:15;128.00;1766.40
70593;DHT22;58294;42.988;20.338;2023-02-15T06:27:42;128.00;1766.40
70593;DHT22;58294;42.988;20.338;2023-02-15T06:30:09;128.00;1766.40
70593;DHT22;58294;42.988;20.338;2023-02-15T06:32:35;128.00;1766.40
70593;DHT22;58294;42.988;20.338;2023-02-15T06:35:01;128.10;1766.40
70593;DHT22;58294;42.988;20.338;2023-02-15T06:37:27;128.20;1766.40
70593;DHT22;58294;42.988;20.338;2023-02-15T06:39:53;128.20;1766.40
70593;DHT22;58294;42.988;20.338;2023-02-15T06:42:18;128.20;1766.40
70593;DHT22;58294;42.988;20.338;2023-02-15T06:44:45;128.20;1740.80
70593;DHT22;58294;42.988;20.338;2023-02-15T06:47:11;128.20;1740.80
70593;DHT22;58294;42.988;20.338;2023-02-15T06:49:37;128.10;1740.80
70593;DHT22;58294;42.988;20.338;2023-02-15T06:52:03;128.10;1740.80
70593;DHT22;58294;42.988;20.338;2023-02-15T06:54:29;128.20;1766.40
70593;DHT22;58294;42.988;20.338;2023-02-15T06:56:55;128.20;1740.80
70593;DHT22;58294;42.988;20.338;2023-02-15T06:59:21;128.30;1740.80
70593;DHT22;58294;42.988;20.338;2023-02-15T07:01:47;128.30;1766.40
70593;DHT22;58294;42.988;20.338;2023-02-15T07:04:13;128.40;1740.80
70593;DHT22;58294;42.988;20.338;2023-02-15T07:06:38;128.50;1715.20
70593;DHT22;58294;42.988;20.338;2023-02-15T07:09:04;128.40;1715.20
70593;DHT22;58294;42.988;20.338;2023-02-15T07:11:30;128.40;1740.80
70593;DHT22;58294;42.988;20.338;2023-02-15T07:14:14;128.50;1740.80
70593;DHT22;58294;42.988;20.338;2023-02-15T07:16:40;128.40;1715.20
70593;DHT22;58294;42.988;20.338;2023-02-15T07:19:06;128.40;1740.80
70593;DHT22;58294;42.988;20.338;2023-02-15T07:21:33;128.50;1766.40
70593;DHT22;58294;42.988;20.338;2023-02-15T07:23:59;128.50;1715.20
70593;DHT22;58294;42.988;20.338;2023-02-15T07:26:25;128.30;1715.20
70593;DHT22;58294;42.988;20.338;2023-02-15T07:28:51;128.20;1715.20
70593;DHT22;58294;42.988;20.338;2023-02-15T07:31:17;128.20;1715.20
70593;DHT22;58294;42.988;20.338;2023-02-15T07:33:43;128.10;1740.80
70593;DHT22;58294;42.988;20.338;2023-02-15T07:36:09;128.10;1740.80
70593;DHT22;58294;42.988;20.338;2023-02-15T07:38:39;128.10;1740.80
70593;DHT22;58294;42.988;20.338;2023-02-15T07:41:07;128.20;1740.80
70593;DHT22;58294;42.988;20.338;2023-02-15T07:43:34;128.10;1740.80
70593;DHT22;58294;42.988;20.338;2023-02-15T07:46:03;128.20;1766.40
70593;DHT22;58294;42.988;20.338;2023-02-15T07:48:29;128.20;1766.40
70593;DHT22;58294;42.988;20.338;2023-02-15T07:50:59;128.30;1740.80
70593;DHT22;58294;42.988;20.338;2023-02-15T07:53:25;128.30;1766.40
70593;DHT22;58294;42.988;20.338;2023-02-15T07:55:51;128.30;1740.80
70593;DHT22;58294;42.988;20.338;2023-02-15T07:58:18;128.20;1740.80
70593;DHT22;58294;42.988;20.338;2023-02-15T08:00:44;128.30;1740.80
70593;DHT22;58294;42.988;20.338;2023-02-15T08:03:25;128.30;1766.40
70593;DHT22;58294;42.988;20.338;2023-02-15T08:05:58;128.50;1792.00
70593;DHT22;58294;42.988;20.338;2023-02-15T08:08:25;128.60;1817.60
70593;DHT22;58294;42.988;20.338;2023-02-15T08:11:01;128.80;1817.60
70593;DHT22;58294;42.988;20.338;2023-02-15T08:13:47;128.90;1792.00
70593;DHT22;58294;42.988;20.338;2023-02-15T08:16:31;153.60;1766.40
70593;DHT22;58294;42.988;20.338;2023-02-15T08:18:59;153.70;1740.80
70593;DHT22;58294;42.988;20.338;2023-02-15T08:21:27;153.80;1766.40
70593;DHT22;58294;42.988;20.338;2023-02-15T08:23:54;153.90;1766.40
70593;DHT22;58294;42.988;20.338;2023-02-15T08:26:20;153.90;1740.80
70593;DHT22;58294;42.988;20.338;2023-02-15T08:28:46;154.00;1740.80
70593;DHT22;58294;42.988;20.338;2023-02-15T08:31:13;154.10;1740.80
70593;DHT22;58294;42.988;20.338;2023-02-15T08:33:40;154.20;1740.80
70593;DHT22;58294;42.988;20.338;2023-02-15T08:36:12;154.20;1740.80
70593;DHT22;58294;42.988;20.338;2023-02-15T08:38:38;154.30;1740.80
70593;DHT22;58294;42.988;20.338;2023-02-15T08:43:38;154.20;1740.80
70593;DHT22;58294;42.988;20.338;2023-02-15T08:46:05;154.20;1715.20
70593;DHT22;58294;42.988;20.338;2023-02-15T08:48:31;154.30;1715.20
70593;DHT22;58294;42.988;20.338;2023-02-15T08:50:57;154.30;1715.20
70593;DHT22;58294;42.988;20.338;2023-02-15T08:53:23;154.30;1740.80
70593;DHT22;58294;42.988;20.338;2023-02-15T08:55:56;154.40;1740.80
70593;DHT22;58294;42.988;20.338;2023-02-15T08:58:22;154.50;1715.20
70593;DHT22;58294;42.988;20.338;2023-02-15T09:00:48;154.50;1715.20
70593;DHT22;58294;42.988;20.338;2023-02-15T09:03:14;154.50;1689.60
70593;DHT22;58294;42.988;20.338;2023-02-15T09:05:39;154.50;1664.00
70593;DHT22;58294;42.988;20.338;2023-02-15T09:08:05;154.50;1664.00
70593;DHT22;58294;42.988;20.338;2023-02-15T09:10:31;179.30;1689.60
70593;DHT22;58294;42.988;20.338;2023-02-15T09:12:57;179.30;1689.60
70593;DHT22;58294;42.988;20.338;2023-02-15T09:15:22;179.30;1689.60
70593;DHT22;58294;42.988;20.338;2023-02-15T09:17:48;179.40;1689.60
70593;DHT22;58294;42.988;20.338;2023-02-15T09:20:14;179.50;1689.60
70593;DHT22;58294;42.988;20.338;2023-02-15T09:22:39;179.40;1664.00
70593;DHT22;58294;42.988;20.338;2023-02-15T09:25:05;179.50;1664.00
70593;DHT22;58294;42.988;20.338;2023-02-15T09:27:31;179.50;1664.00
70593;DHT22;58294;42.988;20.338;2023-02-15T09:29:57;179.50;1664.00
70593;DHT22;58294;42.988;20.338;2023-02-15T09:32:22;179.60;1664.00
70593;DHT22;58294;42.988;20.338;2023-02-15T09:34:48;179.50;1664.00
70593;DHT22;58294;42.988;20.338;2023-02-15T09:37:14;179.60;1664.00
70593;DHT22;58294;42.988;20.338;2023-02-15T09:39:42;179.60;1664.00
70593;DHT22;58294;42.988;20.338;2023-02-15T09:45:16;179.50;1689.60
70593;DHT22;58294;42.988;20.338;2023-02-15T09:53:24;179.90;1715.20
70593;DHT22;58294;42.988;20.338;2023-02-15T10:15:02;332.90;1715.20
70593;DHT22;58294;42.988;20.338;2023-02-15T10:20:38;358.40;1587.20
70593;DHT22;58294;42.988;20.338;2023-02-15T10:23:13;358.60;1536.00
70593;DHT22;58294;42.988;20.338;2023-02-15T10:28:50;384.30;1612.80
70593;DHT22;58294;42.988;20.338;2023-02-15T10:34:18;384.70;1408.00
70593;DHT22;58294;42.988;20.338;2023-02-15T10:51:00;410.30;1382.40
70593;DHT22;58294;42.988;20.338;2023-02-15T10:56:08;435.40;1305.60
70593;DHT22;58294;42.988;20.338;2023-02-15T11:11:32;461.50;1203.20
70593;DHT22;58294;42.988;20.338;2023-02-15T11:14:03;461.20;1152.00
70593;DHT22;58294;42.988;20.338;2023-02-15T11:16:34;461.20;1152.00
70593;DHT22;58294;42.988;20.338;2023-02-15T11:19:50;461.00;1126.40
70593;DHT22;58294;42.988;20.338;2023-02-15T11:22:02;461.00;1177.60
70593;DHT22;58294;42.988;20.338;2023-02-15T11:24:30;461.00;1177.60
70593;DHT22;58294;42.988;20.338;2023-02-15T11:29:35;461.20;1228.80
70593;DHT22;58294;42.988;20.338;2023-02-15T11:54:39;461.40;1049.60
70593;DHT22;58294;42.988;20.338;2023-02-15T11:57:18;461.00;1049.60
70593;DHT22;58294;42.988;20.338;2023-02-15T12:00:02;435.90;1024.00
70593;DHT22;58294;42.988;20.338;2023-02-15T12:02:31;435.20;1049.60
70593;DHT22;58294;42.988;20.338;2023-02-15T12:05:05;410.20;1024.00
70593;DHT22;58294;42.988;20.338;2023-02-15T12:07:54;409.70;1049.60
70593;DHT22;58294;42.988;20.338;2023-02-15T12:10:33;384.70;1100.80
70593;DHT22;58294;42.988;20.338;2023-02-15T12:13:21;384.30;1075.20
70593;DHT22;58294;42.988;20.338;2023-02-15T12:15:53;384.00;1126.40
70593;DHT22;58294;42.988;20.338;2023-02-15T12:18:27;358.90;1075.20
70593;DHT22;58294;42.988;20.338;2023-02-15T12:20:59;358.80;1100.80
70593;DHT22;58294;42.988;20.338;2023-02-15T12:23:28;358.70;1100.80
70593;DHT22;58294;42.988;20.338;2023-02-15T12:25:56;358.60;1126.40
70593;DHT22;58294;42.988;20.338;2023-02-15T12:28:30;358.40;1126.40
70593;DHT22;58294;42.988;20.338;2023-02-15T12:30:58;333.60;1100.80
70593;DHT22;58294;42.988;20.338;2023-02-15T12:33:41;333.40;1126.40
70593;DHT22;58294;42.988;20.338;2023-02-15T12:36:20;333.30;1152.00
70593;DHT22;58294;42.988;20.338;2023-02-15T12:39:16;333.30;1152.00
70593;DHT22;58294;42.988;20.338;2023-02-15T12:42:14;333.20;1177.60
70593;DHT22;58294;42.988;20.338;2023-02-15T12:44:57;333.00;1177.60
70593;DHT22;58294;42.988;20.338;2023-02-15T12:47:22;332.90;1177.60
70593;DHT22;58294;42.988;20.338;2023-02-15T12:52:43;332.80;1203.20
70593;DHT22;58294;42.988;20.338;2023-02-15T12:55:26;332.80;1177.60
70593;DHT22;58294;42.988;20.338;2023-02-15T12:58:17;332.80;1203.20
70593;DHT22;58294;42.988;20.338;2023-02-15T13:00:44;308.10;1203.20
70593;DHT22;58294;42.988;20.338;2023-02-15T13:03:20;308.00;1177.60
70593;DHT22;58294;42.988;20.338;2023-02-15T13:05:50;308.00;1177.60
70593;DHT22;58294;42.988;20.338;2023-02-15T13:08:22;308.00;1177.60
70593;DHT22;58294;42.988;20.338;2023-02-15T13:10:54;307.90;1177.60
70593;DHT22;58294;42.988;20.338;2023-02-15T13:13:26;307.80;1177.60
70593;DHT22;58294;42.988;20.338;2023-02-15T13:15:55;307.80;1203.20
70593;DHT22;58294;42.988;20.338;2023-02-15T13:18:35;307.70;1203.20
70593;DHT22;58294;42.988;20.338;2023-02-15T13:21:26;307.60;1177.60
70593;DHT22;58294;42.988;20.338;2023-02-15T13:24:27;307.60;1203.20
70593;DHT22;58294;42.988;20.338;2023-02-15T13:26:56;307.50;1203.20
70593;DHT22;58294;42.988;20.338;2023-02-15T13:29:25;307.40;1203.20
70593;DHT22;58294;42.988;20.338;2023-02-15T13:31:53;307.30;1177.60
70593;DHT22;58294;42.988;20.338;2023-02-15T13:34:24;307.20;1203.20
70593;DHT22;58294;42.988;20.338;2023-02-15T13:37:15;307.30;1203.20
70593;DHT22;58294;42.988;20.338;2023-02-15T13:40:01;307.30;1203.20
70593;DHT22;58294;42.988;20.338;2023-02-15T13:42:32;307.40;1228.80
70593;DHT22;58294;42.988;20.338;2023-02-15T14:07:07;307.30;1203.20
70593;DHT22;58294;42.988;20.338;2023-02-15T14:10:01;307.30;1203.20
70593;DHT22;58294;42.988;20.338;2023-02-15T14:12:37;307.20;1203.20
70593;DHT22;58294;42.988;20.338;2023-02-15T14:25:50;307.20;1203.20
70593;DHT22;58294;42.988;20.338;2023-02-15T14:31:12;307.20;1228.80
70593;DHT22;58294;42.988;20.338;2023-02-15T14:33:54;307.20;1203.20
70593;DHT22;58294;42.988;20.338;2023-02-15T14:36:21;307.30;1228.80
70593;DHT22;58294;42.988;20.338;2023-02-15T14:47:10;307.30;1203.20
70593;DHT22;58294;42.988;20.338;2023-02-15T14:49:38;307.40;1203.20
70593;DHT22;58294;42.988;20.338;2023-02-15T14:52:06;307.40;1177.60
70593;DHT22;58294;42.988;20.338;2023-02-15T15:04:35;307.40;1177.60
70593;DHT22;58294;42.988;20.338;2023-02-15T15:07:23;307.40;1152.00
70593;DHT22;58294;42.988;20.338;2023-02-15T15:10:05;307.40;1177.60
70593;DHT22;58294;42.988;20.338;2023-02-15T15:12:53;307.40;1177.60
70593;DHT22;58294;42.988;20.338;2023-02-15T15:18:04;307.30;1152.00
70593;DHT22;58294;42.988;20.338;2023-02-15T15:25:57;307.20;1177.60
70593;DHT22;58294;42.988;20.338;2023-02-15T15:34:44;282.30;1126.40
70593;DHT22;58294;42.988;20.338;2023-02-15T15:48:49;256.60;1126.40
70593;DHT22;58294;42.988;20.338;2023-02-15T15:51:27;256.50;1152.00
70593;DHT22;58294;42.988;20.338;2023-02-15T15:53:53;256.40;1152.00
70593;DHT22;58294;42.988;20.338;2023-02-15T15:56:26;256.20;1152.00
70593;DHT22;58294;42.988;20.338;2023-02-15T15:59:02;256.20;1152.00
70593;DHT22;58294;42.988;20.338;2023-02-15T16:01:31;256.00;1177.60
70593;DHT22;58294;42.988;20.338;2023-02-15T16:04:00;231.30;1177.60
70593;DHT22;58294;42.988;20.338;2023-02-15T16:06:34;231.20;1203.20
70593;DHT22;58294;42.988;20.338;2023-02-15T16:09:16;231.10;1203.20
70593;DHT22;58294;42.988;20.338;2023-02-15T16:11:44;231.00;1203.20
70593;DHT22;58294;42.988;20.338;2023-02-15T16:14:26;230.90;1203.20
70593;DHT22;58294;42.988;20.338;2023-02-15T16:16:56;230.90;1203.20
70593;DHT22;58294;42.988;20.338;2023-02-15T16:19:27;230.70;1228.80
70593;DHT22;58294;42.988;20.338;2023-02-15T16:21:54;230.70;1228.80
70593;DHT22;58294;42.988;20.338;2023-02-15T16:24:51;230.60;1228.80
70593;DHT22;58294;42.988;20.338;2023-02-15T16:29:45;230.40;1254.40
70593;DHT22;58294;42.988;20.338;2023-02-15T16:32:22;230.40;1254.40
70593;DHT22;58294;42.988;20.338;2023-02-15T16:35:00;205.70;1228.80
70593;DHT22;58294;42.988;20.338;2023-02-15T16:37:28;205.60;1254.40
70593;DHT22;58294;42.988;20.338;2023-02-15T16:39:56;205.50;1254.40
70593;DHT22;58294;42.988;20.338;2023-02-15T16:42:22;205.40;1254.40
70593;DHT22;58294;42.988;20.338;2023-02-15T16:44:53;205.30;1254.40
70593;DHT22;58294;42.988;20.338;2023-02-15T16:47:29;205.20;1254.40
70593;DHT22;58294;42.988;20.338;2023-02-15T16:49:58;205.10;1254.40
70593;DHT22;58294;42.988;20.338;2023-02-15T16:52:26;205.00;1254.40
70593;DHT22;58294;42.988;20.338;2023-02-15T16:55:04;204.90;1254.40
70593;DHT22;58294;42.988;20.338;2023-02-15T16:57:33;204.90;1280.00
70593;DHT22;58294;42.988;20.338;2023-02-15T17:00:24;204.80;1280.00
70593;DHT22;58294;42.988;20.338;2023-02-15T17:05:23;180.00;1280.00
70593;DHT22;58294;42.988;20.338;2023-02-15T17:08:33;179.90;1280.00
70593;DHT22;58294;42.988;20.338;2023-02-15T17:13:28;179.70;1305.60
70593;DHT22;58294;42.988;20.338;2023-02-15T17:18:45;179.60;1305.60
70593;DHT22;58294;42.988;20.338;2023-02-15T17:21:16;179.50;1305.60
70593;DHT22;58294;42.988;20.338;2023-02-15T17:23:47;179.40;1305.60
70593;DHT22;58294;42.988;20.338;2023-02-15T17:28:51;179.20;1331.20
70593;DHT22;58294;42.988;20.338;2023-02-15T17:31:18;154.50;1331.20
70593;DHT22;58294;42.988;20.338;2023-02-15T17:33:45;154.40;1356.80
70593;DHT22;58294;42.988;20.338;2023-02-15T17:36:19;154.40;1331.20
70593;DHT22;58294;42.988;20.338;2023-02-15T17:39:19;154.30;1356.80
70593;DHT22;58294;42.988;20.338;2023-02-15T17:41:45;154.20;1331.20
70593;DHT22;58294;42.988;20.338;2023-02-15T17:44:12;154.20;1356.80
70593;DHT22;58294;42.988;20.338;2023-02-15T17:46:41;154.10;1356.80
70593;DHT22;58294;42.988;20.338;2023-02-15T17:49:18;154.00;1356.80
70593;DHT22;58294;42.988;20.338;2023-02-15T17:51:44;154.00;1356.80
70593;DHT22;58294;42.988;20.338;2023-02-15T17:54:09;153.90;1382.40
70593;DHT22;58294;42.988;20.338;2023-02-15T17:56:54;153.90;1356.80
70593;DHT22;58294;42.988;20.338;2023-02-15T17:59:20;153.70;1356.80
70593;DHT22;58294;42.988;20.338;2023-02-15T18:01:47;153.70;1382.40
70593;DHT22;58294;42.988;20.338;2023-02-15T18:04:34;153.60;1382.40
70593;DHT22;58294;42.988;20.338;2023-02-15T18:07:20;153.60;1408.00
70593;DHT22;58294;42.988;20.338;2023-02-15T18:10:16;128.90;1382.40
70593;DHT22;58294;42.988;20.338;2023-02-15T18:13:01;128.90;1382.40
70593;DHT22;58294;42.988;20.338;2023-02-15T18:15:27;128.80;1408.00
70593;DHT22;58294;42.988;20.338;2023-02-15T18:17:53;128.80;1408.00
70593;DHT22;58294;42.988;20.338;2023-02-15T18:20:23;128.70;1433.60
70593;DHT22;58294;42.988;20.338;2023-02-15T18:22:52;128.60;1433.60
70593;DHT22;58294;42.988;20.338;2023-02-15T18:25:21;128.60;1433.60
70593;DHT22;58294;42.988;20.338;2023-02-15T18:27:48;128.50;1408.00
70593;DHT22;58294;42.988;20.338;2023-02-15T18:30:19;128.50;1408.00
70593;DHT22;58294;42.988;20.338;2023-02-15T18:32:47;128.40;1433.60
70593;DHT22;58294;42.988;20.338;2023-02-15T18:35:18;128.30;1433.60
70593;DHT22;58294;42.988;20.338;2023-02-15T18:37:45;128.30;1459.20
70593;DHT22;58294;42.988;20.338;2023-02-15T18:40:22;128.30;1459.20